Date,TemperatureHighF,TemperatureAvgF,TemperatureLowF,DewpointHighF,DewpointAvgF,DewpointLowF,HumidityHigh,HumidityAvg,HumidityLow,PressureMaxIn,PressureMinIn,WindSpeedMaxMPH,WindSpeedAvgMPH,GustSpeedMaxMPH,PrecipitationSumIn
2013-1-1,40.3,38.4,33.4,29.3,27.0,20.2,70,63,58,30.19,29.77,12,2,12,0.00
2013-1-2,33.7,29.0,23.9,15.6,14.2,13.2,64,54,45,30.11,29.96,13,1,13,0.00
2013-1-3,33.5,28.0,22.2,16.5,14.6,10.9,68,57,42,30.12,30.01,12,1,12,0.00
2013-1-4,37.6,35.5,32.7,21.6,20.7,20.1,61,54,50,30.04,29.91,19,3,19,0.00
2013-1-5,41.5,36.7,29.7,22.2,20.7,18.5,66,52,44,30.25,30.16,15,1,15,0.00
2013-1-6,47.4,41.4,33.8,36.1,28.6,24.0,88,62,43,30.05,29.90,12,1,12,0.02
2013-1-7,46.2,38.0,26.9,31.2,24.8,-99.9,78,61,42,30.32,29.99,10,0,10,0.00
2013-1-8,47.9,33.8,23.2,35.5,26.0,19.1,88,74,54,30.34,30.26,15,1,15,0.00
2013-1-9,49.8,39.4,27.9,39.0,32.4,24.3,88,76,62,30.31,30.08,19,1,19,0.00
2013-1-10,49.5,42.5,36.0,32.8,26.2,24.3,66,53,40,30.45,30.20,9,1,9,0.00
2013-1-11,46.7,41.4,32.9,43.5,34.1,24.3,92,75,61,30.43,29.99,8,0,8,0.43
2013-1-12,49.2,45.2,43.3,47.4,43.3,41.7,95,93,91,30.08,29.99,5,0,5,0.00
2013-1-13,49.9,46.8,43.8,48.5,45.3,41.7,95,94,92,30.06,29.91,6,0,6,0.00
2013-1-14,54.8,50.5,40.1,54.0,46.7,36.2,97,88,62,30.20,29.85,7,0,7,0.21
2013-1-15,39.9,37.4,35.2,36.5,31.8,28.9,91,80,70,30.26,30.12,7,0,7,0.19
2013-1-16,37.0,35.1,33.1,35.4,33.1,30.0,94,92,83,30.12,29.74,11,0,11,0.71
2013-1-17,42.3,39.0,35.9,36.0,30.3,-99.9,94,73,57,30.02,29.85,11,1,11,0.00
2013-1-18,31.6,28.9,25.1,13.3,8.8,4.9,60,43,34,30.40,30.24,18,2,18,0.00
2013-1-19,49.9,43.5,32.2,28.5,27.0,24.2,73,53,39,30.23,29.85,22,4,22,0.00
2013-1-20,55.0,42.7,30.1,30.7,21.3,-99.9,69,47,24,29.97,29.65,25,4,25,0.00
2013-1-21,33.2,29.0,23.6,21.5,11.6,8.5,78,49,37,30.02,29.77,10,0,10,0.00
2013-1-22,21.8,18.8,15.4,1.0,-3.4,-7.2,48,37,28,30.13,29.98,23,3,23,0.00
2013-1-23,20.8,15.8,10.4,3.2,-0.6,-3.8,69,49,37,30.20,30.09,16,1,16,0.00
2013-1-24,25.1,18.1,11.6,6.7,1.3,-5.8,73,50,26,30.36,30.04,16,1,16,0.00
2013-1-25,24.1,17.0,9.5,13.2,3.1,-3.8,79,55,37,30.37,29.99,9,0,9,0.04
2013-1-26,27.2,17.9,7.7,14.4,8.6,2.3,82,68,44,30.25,29.98,14,1,14,0.00
2013-1-27,34.3,27.4,17.5,14.7,12.9,8.7,72,55,41,30.47,30.39,13,1,13,0.00
2013-1-28,35.6,30.7,20.0,33.5,25.3,-99.9,92,83,72,30.42,29.94,9,1,10,0.09
2013-1-29,50.4,42.6,32.1,46.0,38.7,-99.9,94,88,79,30.06,29.93,6,0,6,0.00
2013-1-30,67.1,54.8,43.1,59.5,50.5,40.8,97,86,72,29.96,29.25,25,3,25,0.13
2013-1-31,61.0,43.9,29.0,58.7,30.5,9.1,94,62,36,29.76,28.99,32,6,32,0.69
2013-2-1,31.2,27.4,21.6,16.3,7.8,-99.9,67,44,31,30.19,29.75,22,2,22,0.00
2013-2-2,30.7,24.0,16.4,20.0,7.7,3.3,80,51,31,30.24,29.96,15,2,15,0.01
2013-2-3,31.0,26.4,23.3,23.7,19.7,-99.9,86,77,64,29.95,29.73,15,0,15,0.01
2013-2-4,30.3,25.5,20.0,21.6,11.2,8.2,81,55,41,29.94,29.76,20,2,20,0.00
2013-2-5,33.5,30.7,27.6,28.1,25.1,17.7,86,79,66,29.87,29.79,5,0,5,0.00
2013-2-6,39.5,31.7,24.7,29.8,22.5,14.9,88,70,47,30.28,29.83,14,1,14,0.00
2013-2-7,35.9,28.8,21.6,22.6,16.2,12.9,76,60,44,30.40,30.19,8,0,8,0.00
2013-2-8,38.3,34.5,31.2,33.9,29.0,-99.9,92,85,64,30.19,29.58,18,2,18,0.27
2013-2-9,32.7,27.7,21.4,29.7,17.6,7.0,92,68,43,30.28,29.69,23,3,23,0.12
2013-2-10,38.2,27.0,14.3,20.0,12.4,6.0,72,55,34,30.40,30.23,8,0,8,0.00
2013-2-11,50.4,39.5,30.6,48.7,35.0,-99.9,94,85,64,30.23,29.57,13,1,13,0.21
2013-2-12,47.3,40.7,29.7,40.4,26.1,20.8,93,57,42,29.90,29.68,21,2,21,0.00
2013-2-13,47.1,34.6,24.2,30.8,24.9,-99.9,89,70,46,29.88,29.59,2,0,6,0.10
2013-2-14,48.6,36.8,29.0,36.2,28.9,-99.9,93,76,48,29.93,29.63,4,0,10,0.02
2013-2-15,57.5,42.4,27.8,39.5,30.0,24.3,90,65,37,30.00,29.82,6,1,11,0.00
2013-2-16,39.1,35.0,30.1,32.1,25.5,11.8,90,70,46,29.90,29.68,4,1,7,0.01
2013-2-17,32.1,27.4,20.3,12.2,4.3,-99.9,47,37,29,29.98,29.64,7,4,20,0.00
2013-2-18,37.0,26.5,18.4,13.4,5.2,-99.9,51,41,27,30.22,29.99,7,2,12,0.00
2013-2-19,47.1,36.7,24.7,41.8,28.2,11.7,91,72,48,30.11,29.61,9,2,16,0.10
2013-2-20,35.9,31.7,28.7,26.4,18.6,14.6,68,58,54,29.82,29.69,4,2,8,0.00
2013-2-21,36.0,31.5,24.5,14.6,11.5,-99.9,59,47,39,30.26,29.97,7,3,8,0.00
2013-2-22,39.6,31.2,22.2,28.4,19.6,-99.9,78,64,52,30.32,30.16,2,0,6,0.00
2013-2-23,46.7,40.2,34.7,45.1,37.7,28.5,95,91,78,30.17,29.71,4,1,9,0.05
2013-2-24,47.3,38.4,30.0,42.0,29.7,-99.9,95,74,50,29.93,29.68,6,2,11,0.00
2013-2-25,44.3,35.4,28.1,27.8,22.9,18.5,77,61,46,30.14,29.94,3,1,5,0.00
2013-2-26,46.4,35.5,25.0,35.6,28.4,20.8,91,76,54,30.17,29.71,22,2,22,0.27
2013-2-27,51.6,44.6,38.0,47.9,40.4,35.6,96,86,65,29.72,29.41,7,3,15,0.18
2013-2-28,47.7,42.8,35.9,37.2,31.0,-99.9,83,65,43,29.57,29.48,3,1,9,0.00
2013-3-1,47.0,38.7,31.5,32.1,26.3,-99.9,84,64,44,29.72,29.55,5,2,9,0.00
2013-3-2,42.1,35.8,30.3,24.5,21.6,18.5,63,56,45,29.73,29.63,4,2,10,0.00
2013-3-3,38.6,32.0,26.4,18.5,16.4,-99.9,63,54,41,29.72,29.62,5,2,12,0.00
2013-3-4,42.5,34.3,28.7,20.9,16.3,-99.9,63,49,37,30.00,29.71,6,3,14,0.00
2013-3-5,51.9,40.6,31.8,26.1,23.4,20.1,72,51,35,30.01,29.85,4,1,8,0.00
2013-3-6,40.6,37.8,33.1,35.5,31.9,25.1,84,79,66,29.91,29.66,9,5,14,0.06
2013-3-7,45.8,39.1,34.1,31.2,26.7,-99.9,83,63,47,30.07,29.90,6,3,11,0.00
2013-3-8,41.5,34.7,29.8,36.5,28.6,-99.9,92,81,59,30.19,30.01,4,2,7,0.11
2013-3-9,60.2,42.8,30.6,25.7,22.0,15.0,67,47,20,30.29,30.18,3,1,6,0.00
2013-3-10,60.1,41.1,27.8,36.2,28.0,-99.9,84,63,34,30.35,30.24,4,1,7,0.00
2013-3-11,61.6,46.5,35.2,46.1,38.9,30.0,89,77,41,30.29,30.05,6,1,9,0.00
2013-3-12,58.1,51.5,41.6,56.7,47.9,34.2,96,88,73,30.04,29.65,8,3,12,0.64
2013-3-13,50.2,41.9,33.7,33.9,27.2,21.3,76,57,36,29.92,29.81,6,2,15,0.00
2013-3-14,42.2,35.3,29.5,21.3,14.0,7.4,66,43,27,29.98,29.89,7,3,10,0.00
2013-3-15,50.7,39.3,26.6,29.8,18.2,9.8,56,43,32,30.01,29.70,8,2,14,0.00
2013-3-16,45.4,37.0,32.7,30.5,27.7,21.9,90,71,51,29.90,29.74,2,1,5,0.14
2013-3-17,39.9,33.1,27.5,30.6,22.9,16.1,91,69,44,30.27,29.90,3,1,7,0.00
2013-3-18,42.3,33.3,28.7,34.2,21.4,-99.9,92,65,49,30.35,29.90,5,2,10,0.44
2013-3-19,52.9,40.4,35.9,43.6,32.9,17.2,95,78,37,29.89,29.68,6,2,13,0.18
2013-3-20,49.4,39.5,30.6,20.4,17.0,12.8,57,41,25,29.91,29.76,7,3,13,0.00
2013-3-21,39.9,33.9,28.5,26.6,17.0,8.2,81,52,31,29.80,29.64,4,2,10,0.00
2013-3-22,42.9,34.0,26.7,19.9,16.8,10.2,64,50,36,29.91,29.76,6,3,11,0.00
2013-3-23,49.5,38.4,30.0,20.6,18.1,15.8,60,45,28,29.93,29.83,6,2,12,0.00
2013-3-24,48.5,37.7,25.1,24.6,19.4,15.9,75,50,31,29.95,29.67,5,1,7,0.00
2013-3-25,37.9,35.7,33.1,33.7,30.2,24.5,92,81,59,29.67,29.44,4,1,9,0.30
2013-3-26,53.2,42.2,34.6,37.2,31.0,24.4,93,68,34,29.88,29.60,5,1,7,0.00
2013-3-27,53.2,42.6,30.1,33.3,27.6,22.3,84,58,32,30.00,29.88,7,2,12,0.00
2013-3-28,50.2,42.3,32.5,30.2,27.3,25.1,75,57,39,30.12,29.98,5,2,9,0.00
2013-3-29,54.8,45.5,34.4,29.8,26.0,-99.9,68,49,31,30.16,30.07,5,1,7,0.00
2013-3-30,61.2,45.7,30.0,33.8,25.3,20.1,85,50,22,30.17,30.07,4,1,10,0.00
2013-3-31,58.4,45.9,34.3,46.1,34.3,26.0,92,67,33,30.12,29.68,8,2,14,0.18
2013-4-1,64.5,48.9,37.3,49.8,35.3,13.2,94,64,35,29.92,29.63,8,3,14,0.00
2013-4-2,46.2,37.5,27.8,16.1,12.5,8.8,56,37,23,30.10,29.92,6,2,13,0.00
2013-4-3,48.6,37.9,27.8,15.5,12.3,7.4,58,36,23,30.29,30.09,7,2,13,0.00
2013-4-4,56.0,40.9,26.0,23.9,17.5,9.2,62,40,25,30.39,30.07,5,2,9,0.00
2013-4-5,65.0,49.5,38.8,37.4,26.3,18.0,84,46,18,30.07,29.71,6,2,9,0.00
2013-4-6,58.3,43.7,33.5,26.7,18.2,12.7,62,38,18,30.29,30.00,4,2,7,0.00
2013-4-7,66.3,50.3,35.5,42.6,33.1,-99.9,78,56,30,30.29,29.98,8,3,16,0.00
2013-4-8,80.3,62.6,45.1,48.3,44.0,38.7,82,54,27,30.05,29.94,5,1,10,0.00
2013-4-9,85.3,71.1,58.0,52.5,47.9,40.8,76,48,21,29.98,29.88,7,2,15,0.00
2013-4-10,90.1,71.4,59.6,58.8,52.9,49.1,90,55,28,29.91,29.77,6,2,12,0.58
2013-4-11,62.6,58.4,48.2,61.1,53.6,42.3,95,85,69,29.95,29.76,5,2,10,0.00
2013-4-12,48.0,44.6,42.5,44.8,42.1,41.1,95,91,80,29.94,29.67,7,3,15,0.94
2013-4-13,62.3,49.7,37.9,46.4,38.1,32.6,96,69,34,29.96,29.73,4,1,7,0.00
2013-4-14,63.4,51.6,38.6,41.4,32.7,25.2,86,52,27,30.16,29.95,6,1,11,0.00
2013-4-15,64.0,52.7,44.8,40.3,35.7,30.0,69,53,39,30.34,30.16,5,2,9,0.00
2013-4-16,74.2,60.2,46.2,54.6,48.3,39.7,85,66,48,30.33,30.10,8,3,12,0.00
2013-4-17,76.3,62.5,53.3,55.7,45.0,29.6,87,58,19,30.26,30.08,5,1,7,0.00
2013-4-18,62.7,56.1,49.8,54.5,47.9,38.8,88,74,60,30.28,30.05,5,1,8,0.00
2013-4-19,79.6,66.9,56.0,64.8,59.7,52.5,92,79,55,30.05,29.60,10,4,16,0.20
2013-4-20,60.5,51.8,45.2,52.8,34.0,22.2,90,55,27,30.29,29.68,6,2,11,0.10
2013-4-21,60.4,45.2,33.5,27.3,23.4,19.0,61,43,25,30.59,30.30,4,1,8,0.00
2013-4-22,55.6,45.0,33.1,38.0,32.6,26.6,81,63,45,30.60,30.44,5,2,11,0.00
2013-4-23,50.4,45.2,41.6,42.5,35.6,-99.9,83,73,64,30.43,30.12,4,2,10,0.00
2013-4-24,76.5,56.1,36.3,53.2,43.5,-99.9,88,68,44,30.11,29.79,7,2,14,0.00
2013-4-25,68.9,54.5,44.3,53.6,31.9,22.9,78,45,22,30.25,29.86,7,2,10,0.00
2013-4-26,67.9,52.9,40.1,36.5,31.9,23.8,78,49,22,30.39,30.25,3,1,7,0.00
2013-4-27,74.9,56.7,41.9,34.3,31.3,-99.9,68,42,21,30.42,30.25,4,0,7,0.00
2013-4-28,74.6,57.7,41.3,43.7,35.8,25.0,81,48,25,30.30,30.17,6,1,12,0.00
2013-4-29,56.0,53.8,52.2,54.3,49.8,39.8,95,87,57,30.20,30.11,3,0,7,0.13
2013-4-30,71.3,57.5,47.1,53.1,43.8,29.9,95,66,27,30.30,30.16,4,1,10,0.00
2013-5-1,70.6,55.2,41.1,45.9,37.0,31.4,77,53,27,30.44,30.30,5,1,11,0.00
2013-5-2,77.2,56.9,40.1,46.9,40.3,33.7,88,59,25,30.44,30.31,3,0,7,0.00
2013-5-3,68.4,55.5,45.8,42.8,39.8,34.0,81,58,31,30.41,30.32,4,1,11,0.00
2013-5-4,73.2,56.1,41.9,47.9,40.3,-99.9,88,62,28,30.35,30.19,3,1,8,0.00
2013-5-5,67.3,57.0,45.8,44.0,40.8,38.4,77,56,38,30.25,30.17,3,1,9,0.00
2013-5-6,71.5,56.0,45.1,53.8,47.7,38.7,88,75,51,30.22,30.11,2,1,9,0.00
2013-5-7,72.5,60.1,52.2,63.3,55.1,48.8,93,84,62,30.13,30.02,3,1,6,0.16
2013-5-8,74.6,62.2,55.7,66.1,58.1,52.5,96,87,51,30.03,29.90,4,0,6,0.24
2013-5-9,72.8,61.5,55.3,59.4,54.1,52.4,94,78,52,29.96,29.88,3,0,6,0.30
2013-5-10,86.5,69.6,53.2,62.0,54.5,49.6,92,64,29,29.98,29.87,4,1,8,0.21
2013-5-11,77.2,66.0,61.5,65.8,62.0,58.5,95,88,60,29.90,29.68,5,1,8,0.38
2013-5-12,66.6,59.1,46.5,58.5,40.9,-99.9,93,58,26,29.95,29.68,5,2,13,0.03
2013-5-13,56.3,47.6,37.6,36.9,29.6,20.1,84,52,27,30.10,29.96,5,1,10,0.00
2013-5-14,65.3,49.4,35.9,34.9,27.1,-99.9,81,50,24,30.14,30.02,3,1,12,0.00
2013-5-15,76.8,61.8,45.8,57.1,48.2,35.0,81,62,44,30.05,29.68,5,1,9,0.00
2013-5-16,84.5,68.9,55.7,64.1,57.9,52.2,91,71,43,29.82,29.69,5,1,8,0.02
2013-5-17,76.5,62.9,49.6,56.1,45.4,39.6,81,56,27,30.17,29.83,3,0,6,0.00
2013-5-18,70.1,59.6,53.5,54.5,50.9,43.7,90,74,53,30.26,30.17,3,0,7,0.10
2013-5-19,60.9,58.6,55.7,59.8,57.1,53.7,96,95,91,30.26,30.14,2,0,5,0.24
2013-5-20,81.1,67.6,58.1,70.0,62.4,57.3,97,85,59,30.14,29.95,4,1,6,0.00
2013-5-21,87.0,74.0,61.3,70.2,65.0,58.7,94,75,52,29.96,29.83,6,2,11,0.00
2013-5-22,90.1,76.8,67.9,71.6,66.5,-99.9,91,75,45,29.90,29.79,5,2,10,0.00
2013-5-23,83.2,73.6,69.4,69.7,66.7,64.4,88,80,55,29.87,29.72,8,3,11,0.10
2013-5-24,69.3,55.5,43.9,64.9,52.1,38.4,95,88,68,29.99,29.68,5,1,8,0.13
2013-5-25,60.9,52.4,44.1,41.5,37.1,30.8,88,59,35,30.03,29.94,7,2,11,0.04
2013-5-26,70.6,57.6,46.5,39.9,35.6,31.6,64,46,25,30.19,30.01,5,2,14,0.03
2013-5-27,77.2,59.4,40.8,45.6,39.2,33.2,87,53,24,30.24,30.13,3,0,8,0.01
2013-5-28,64.5,59.0,50.5,62.1,54.3,44.1,94,85,62,30.19,30.09,2,0,5,0.01
2013-5-29,94.0,74.4,59.6,73.4,62.8,58.2,96,72,32,30.09,30.00,5,1,9,0.01
2013-5-30,95.6,81.7,67.3,69.2,63.5,58.8,89,58,31,30.12,30.05,3,0,8,0.01
2013-5-31,95.4,81.5,66.6,70.1,62.8,54.8,88,57,27,30.11,29.98,6,2,13,0.00
2013-6-1,96.1,81.7,68.4,68.0,64.7,59.2,86,59,31,30.00,29.88,6,2,12,0.00
2013-6-2,89.3,79.8,71.3,68.8,66.1,62.3,83,64,46,29.90,29.77,9,2,13,0.00
2013-6-3,77.2,71.5,64.8,71.9,67.3,62.1,94,87,73,29.85,29.77,4,0,7,0.18
2013-6-4,73.0,60.9,53.9,61.8,49.8,44.4,91,69,40,30.09,29.85,2,0,5,0.02
2013-6-5,84.1,65.0,49.4,52.9,47.4,43.3,83,56,27,30.18,30.07,2,0,4,0.02
2013-6-6,74.2,64.4,55.3,61.0,55.6,49.0,92,75,43,30.11,29.95,4,1,7,0.01
2013-6-7,65.8,63.1,60.2,64.6,61.7,57.9,97,95,90,29.94,29.56,3,0,4,0.01
2013-6-8,78.1,67.1,58.3,66.9,61.4,57.6,98,84,59,30.05,29.55,3,1,6,0.03
2013-6-9,86.5,71.8,58.4,62.7,58.8,54.6,91,67,37,30.16,30.05,4,0,8,0.02
2013-6-10,72.3,69.3,65.5,71.1,25.0,-99.9,96,67,76,30.12,29.77,2,0,5,1.14
2013-6-11,83.0,74.0,66.9,71.2,4.2,-99.9,97,41,53,29.76,29.64,4,2,10,0.09
2013-6-12,84.0,72.9,65.6,60.7,58.0,54.8,79,61,39,29.82,29.74,4,1,7,0.00
2013-6-13,77.4,68.2,59.3,71.9,61.8,55.8,93,80,68,29.82,29.37,3,0,6,0.48
2013-6-14,77.0,61.9,53.9,60.4,55.3,52.2,95,81,47,29.90,29.48,2,0,7,0.12
2013-6-15,83.8,69.2,56.5,59.2,54.4,-99.9,91,65,35,30.00,29.90,2,0,6,0.00
2013-6-16,84.0,70.7,58.0,64.6,59.5,53.3,89,70,42,29.99,29.79,7,2,9,0.00
2013-6-17,91.0,75.9,64.3,68.4,63.9,60.9,91,69,40,29.91,29.82,5,1,10,0.01
2013-6-18,77.6,68.6,63.4,69.4,64.3,60.6,96,86,71,29.88,29.78,124,40,125,0.31
2013-6-19,82.4,67.8,58.9,62.5,55.8,47.9,99,70,32,30.14,29.84,124,47,125,0.01
2013-6-20,83.0,68.8,53.8,59.3,53.7,50.3,90,62,35,30.25,30.14,4,1,13,0.00
2013-6-21,88.4,71.4,55.4,57.9,51.7,-99.9,87,55,32,30.29,30.20,3,0,12,0.00
2013-6-22,90.1,72.7,56.0,65.7,59.4,51.8,90,65,40,30.24,30.09,3,1,10,0.00
2013-6-23,89.5,75.2,61.5,70.7,65.3,57.8,90,73,47,30.18,30.03,5,1,14,0.00
2013-6-24,94.5,79.0,69.9,73.4,68.0,62.1,93,71,42,30.06,29.97,6,0,18,0.00
2013-6-25,94.9,77.7,65.8,73.9,65.9,-99.9,92,72,38,29.99,29.82,5,1,19,0.03
2013-6-26,93.4,77.7,68.4,73.6,65.1,-99.9,90,71,44,29.85,29.75,2,0,12,0.08
2013-6-27,90.5,77.7,71.1,75.3,70.7,68.7,96,81,52,29.79,29.54,114,21,125,0.66
2013-6-28,87.4,76.1,69.4,71.9,68.6,65.1,98,79,53,29.56,29.45,124,22,125,0.04
2013-6-29,90.3,76.6,65.6,71.5,65.3,59.6,95,72,39,29.67,29.46,4,1,14,0.01
2013-6-30,81.1,74.4,71.1,77.0,71.0,67.0,94,89,81,29.86,29.67,124,16,125,0.65
2013-7-1,77.4,74.7,72.3,75.1,72.1,69.5,96,91,89,30.00,29.85,119,17,125,0.29
2013-7-2,86.3,76.7,72.1,75.0,70.8,-99.9,93,85,61,30.16,30.00,6,1,15,0.24
2013-7-3,87.6,76.7,70.6,76.7,72.0,68.8,96,86,64,30.22,30.14,5,1,11,0.32
2013-7-4,91.6,80.7,74.2,78.0,70.3,-99.9,96,77,50,30.23,30.14,6,2,16,0.00
2013-7-5,94.3,82.7,72.8,74.8,70.1,-99.9,91,70,43,30.20,30.08,5,2,16,0.00
2013-7-6,97.3,85.1,74.6,74.7,71.4,68.6,89,66,41,30.13,30.01,4,1,14,0.00
2013-7-7,96.6,84.4,73.9,74.6,70.8,66.9,88,66,44,30.06,29.92,5,1,16,0.00
2013-7-8,90.3,78.0,70.3,72.1,67.2,62.2,88,71,48,30.04,29.96,3,1,12,0.00
2013-7-9,89.3,78.3,69.3,73.3,69.4,64.3,90,76,51,30.05,29.96,4,0,12,0.09
2013-7-10,92.1,80.9,73.2,76.6,72.0,68.9,95,76,49,29.99,29.79,6,2,19,0.01
2013-7-11,88.4,79.6,74.7,72.7,69.8,64.7,85,73,50,29.89,29.79,4,0,12,0.00
2013-7-12,75.8,71.8,68.8,68.4,65.7,61.4,96,82,69,30.02,29.88,123,30,125,0.84
2013-7-13,87.8,76.2,68.9,78.5,72.5,67.7,100,89,65,30.26,30.02,124,66,125,0.53
2013-7-14,93.4,80.6,72.8,78.2,72.7,69.1,100,79,48,30.32,30.22,124,48,125,0.01
2013-7-15,96.3,82.8,72.0,74.6,72.2,68.9,91,72,47,30.25,30.11,2,0,8,0.00
2013-7-16,94.5,82.7,73.7,73.4,70.1,65.1,86,68,43,30.18,30.11,2,0,8,0.00
2013-7-17,99.2,83.0,72.7,73.6,70.8,67.0,90,69,40,30.17,30.05,1,0,6,0.00
2013-7-18,98.0,85.1,74.6,78.5,73.5,70.8,88,70,46,30.06,29.93,2,0,11,0.00
2013-7-19,98.5,88.1,79.9,78.8,75.4,71.9,88,68,46,29.96,29.78,6,1,18,0.00
2013-7-20,95.6,85.7,78.1,74.6,70.4,66.9,72,61,45,29.82,29.72,6,1,18,0.00
2013-7-21,90.1,78.6,72.1,75.0,71.3,68.3,89,79,57,29.92,29.88,2,0,10,0.04
2013-7-22,86.3,76.5,71.5,76.6,71.8,68.2,94,86,68,29.92,29.77,124,20,125,0.63
2013-7-23,89.3,76.7,70.1,77.5,16.4,-99.9,100,55,55,29.71,29.56,124,46,125,0.63
2013-7-24,79.6,73.2,65.5,69.7,65.6,53.8,93,78,62,29.90,29.61,1,0,6,0.00
2013-7-25,65.8,63.0,60.7,59.7,55.1,52.8,85,76,66,30.02,29.90,1,0,8,0.00
2013-7-26,85.1,71.2,61.8,64.3,59.0,56.1,88,68,40,30.03,29.97,2,0,9,0.00
2013-7-27,88.6,73.2,62.3,71.8,62.5,58.6,94,72,41,30.03,29.91,3,1,14,0.00
2013-7-28,84.1,72.1,68.1,72.3,66.9,61.5,94,84,66,29.95,29.86,124,20,125,0.77
2013-7-29,85.3,72.1,63.5,71.4,61.9,51.1,99,75,32,30.10,29.93,124,51,125,0.08
2013-7-30,82.8,69.8,59.5,60.2,56.9,-99.9,90,68,41,30.17,30.09,2,0,9,0.00
2013-7-31,84.0,71.2,59.3,64.6,60.6,56.3,92,71,43,30.15,30.02,1,0,9,0.00
2013-8-1,71.8,68.8,66.6,70.6,65.8,62.2,96,90,79,30.01,29.80,124,36,125,0.78
2013-8-2,88.0,74.6,65.3,71.9,65.0,59.0,98,76,40,29.91,29.79,124,34,125,0.03
2013-8-3,78.1,70.9,66.3,68.4,64.9,62.3,92,82,63,29.92,29.85,2,0,11,0.01
2013-8-4,79.9,69.9,62.7,62.9,59.0,52.6,93,71,40,29.97,29.84,2,0,9,0.00
2013-8-5,79.8,66.3,55.4,57.7,53.8,48.8,89,67,38,30.06,29.97,1,0,6,0.00
2013-8-6,81.2,67.0,56.2,63.6,58.1,52.8,92,75,44,30.09,30.01,5,0,13,0.00
2013-8-7,76.8,70.6,65.8,69.6,65.7,61.4,92,85,69,30.11,30.03,3,1,11,0.02
2013-8-8,87.6,76.3,69.6,76.2,70.5,67.2,95,83,60,30.03,29.96,5,1,13,0.39
2013-8-9,85.9,78.4,74.7,76.4,73.0,69.6,93,84,65,29.99,29.80,6,1,16,0.23
2013-8-10,86.7,74.7,66.3,72.9,66.5,62.3,95,78,46,30.02,29.85,3,0,12,0.00
2013-8-11,89.0,73.8,60.9,67.1,61.4,57.3,89,68,38,30.11,29.99,2,0,9,0.00
2013-8-12,85.7,75.1,69.1,70.9,67.5,64.1,91,78,51,30.01,29.91,0,0,6,0.00
2013-8-13,83.2,73.2,67.3,73.6,68.8,65.8,96,87,64,29.91,29.68,2,0,7,2.04
2013-8-14,74.0,66.0,56.7,67.6,53.6,47.4,86,66,43,30.04,29.74,4,1,14,0.00
2013-8-15,80.7,64.7,53.3,55.5,51.7,46.4,89,67,34,30.14,30.04,1,0,6,0.00
2013-8-16,81.2,71.7,57.8,61.8,55.3,49.1,92,58,37,30.18,30.11,1,0,7,0.00
2013-8-17,84.5,68.5,55.6,63.9,56.6,52.7,92,69,39,30.25,30.19,2,0,11,0.00
2013-8-18,73.0,69.2,63.2,64.9,62.0,57.5,91,79,59,30.23,30.12,1,0,5,0.04
2013-8-19,78.5,69.6,61.6,65.2,61.6,59.1,93,77,57,30.13,30.03,2,0,10,0.00
2013-8-20,90.5,79.4,65.8,72.2,65.9,60.9,93,66,38,30.12,30.05,1,0,7,0.00
2013-8-21,91.6,75.9,63.9,71.2,64.7,58.5,93,72,36,30.17,30.05,3,0,10,0.00
2013-8-22,85.7,75.9,72.0,75.1,70.6,67.5,93,84,62,30.05,29.87,5,0,12,0.64
2013-8-23,76.0,73.0,68.9,66.5,63.9,61.2,90,74,61,30.01,29.95,0,0,4,0.00
2013-8-24,81.8,71.5,59.5,57.4,54.0,47.2,84,56,31,30.33,30.23,1,0,6,0.00
2013-8-25,85.9,68.1,54.5,62.7,54.0,49.5,93,66,31,30.39,30.23,3,0,11,0.00
2013-8-26,88.2,74.1,62.4,66.2,61.1,54.6,86,66,44,30.24,29.92,4,1,14,0.00
2013-8-27,89.0,77.2,70.6,69.2,66.8,65.3,86,71,47,29.92,29.84,1,0,9,0.02
2013-8-28,75.6,72.1,68.1,73.4,69.5,65.3,94,91,84,29.88,29.81,0,0,4,0.44
2013-8-29,82.4,72.8,69.3,71.5,68.3,64.2,96,87,64,30.01,29.85,1,0,7,0.00
2013-8-30,84.5,75.0,67.9,70.6,67.6,63.6,92,79,61,30.01,29.85,5,1,13,0.00
2013-8-31,88.0,78.3,71.1,73.4,70.1,66.5,91,77,60,29.87,29.77,4,2,12,0.00
2013-9-1,92.9,78.9,70.9,73.8,70.2,67.2,91,76,47,29.83,29.74,3,0,10,0.00
2013-9-2,82.6,75.3,71.6,76.5,71.5,68.7,96,88,64,29.77,29.68,2,0,7,0.25
2013-9-3,82.6,73.1,63.9,71.6,64.6,55.5,95,77,42,29.89,29.69,2,0,10,0.00
2013-9-4,85.7,68.7,60.2,58.3,56.5,54.1,86,68,35,30.00,29.88,2,0,10,0.00
2013-9-5,63.2,60.4,58.4,57.9,56.3,55.2,90,86,80,29.98,29.94,0,0,1,0.00
2013-9-6,75.8,65.0,52.8,47.8,45.0,38.9,83,52,28,30.23,30.13,1,0,7,0.00
2013-9-7,52.6,50.1,48.0,48.3,46.6,45.2,91,88,83,30.13,30.09,0,0,0,0.00
2013-9-8,66.0,62.5,58.9,49.7,47.9,46.2,64,59,55,30.06,29.98,0,0,5,0.00
2013-9-9,79.6,65.0,52.0,59.1,52.6,45.2,80,65,44,30.20,30.06,3,0,9,0.00
2013-9-10,90.1,77.1,65.5,71.9,65.6,-99.9,88,73,55,30.17,30.05,5,1,14,0.00
2013-9-11,77.9,76.3,74.2,71.2,70.4,69.2,85,82,80,30.10,30.08,0,0,6,0.00
2013-9-19,69.6,60.3,55.0,52.1,51.3,50.4,85,73,52,30.08,30.06,0,0,8,0.00
2013-9-20,83.8,65.7,49.4,64.7,54.2,46.9,93,70,37,30.08,29.96,3,0,9,0.00
2013-9-21,83.0,66.9,51.3,65.4,56.4,48.8,92,73,35,29.99,29.65,6,1,16,0.42
2013-9-22,68.8,61.4,52.0,64.8,52.4,43.4,95,75,42,29.91,29.65,2,0,18,0.48
2013-9-23,67.8,55.4,44.6,46.0,43.1,39.8,85,65,42,30.04,29.91,2,0,9,0.00
2013-9-24,74.9,56.3,43.5,50.4,44.8,39.3,86,68,37,30.06,29.88,2,0,11,0.00
2013-9-25,75.1,58.4,46.4,50.4,46.8,42.2,87,68,36,29.95,29.86,1,0,9,0.00
2013-9-26,72.8,59.3,47.9,60.1,52.2,45.1,92,79,54,30.07,29.92,1,0,6,0.00
2013-9-27,69.4,61.0,55.0,57.7,53.0,49.8,92,77,52,30.25,30.08,0,0,5,0.00
2013-9-28,76.5,61.7,53.3,56.3,50.6,-99.9,91,72,41,30.30,30.22,1,0,7,0.00
2013-9-29,73.9,59.4,49.9,59.8,50.1,-99.9,93,76,46,30.21,30.05,1,0,7,0.00
2013-9-30,74.9,58.7,47.7,57.1,50.0,44.9,92,76,42,30.07,29.96,1,0,6,0.00
2013-10-1,82.8,63.8,49.8,61.3,54.4,47.3,93,74,42,30.01,29.90,2,0,10,0.00
2013-10-2,85.5,68.7,55.3,65.2,58.0,52.1,92,72,40,30.00,29.92,3,0,14,0.00
2013-10-3,84.1,68.6,57.2,64.4,58.2,54.6,92,73,37,30.11,30.00,2,0,7,0.00
2013-10-4,89.3,71.5,58.7,69.7,61.2,55.8,92,73,41,30.05,29.96,2,0,10,0.00
2013-10-5,86.3,72.6,63.9,70.6,64.7,61.0,92,78,51,30.07,29.98,2,0,9,0.00
2013-10-6,80.3,69.5,65.3,69.4,65.3,61.9,93,87,68,30.05,29.95,1,0,7,0.02
2013-10-7,79.4,65.3,52.9,72.5,59.7,-99.9,95,90,64,29.99,29.75,8,1,25,0.37
2013-10-8,66.3,54.8,46.5,52.7,47.8,44.6,94,79,48,30.29,30.00,2,0,8,0.00
2013-10-9,61.5,55.6,50.5,50.0,47.0,43.2,82,73,62,30.34,30.23,2,0,11,0.00
2013-10-10,59.6,56.0,51.6,56.9,52.2,47.2,94,87,70,30.23,30.00,1,0,9,0.17
2013-10-11,63.2,60.3,57.6,61.5,58.0,54.6,96,92,85,30.03,29.94,2,0,10,0.56
2013-10-12,71.6,63.7,58.6,58.1,52.7,43.4,85,68,50,30.21,30.02,2,0,14,0.00
2013-10-13,67.8,60.1,50.5,54.3,50.2,46.2,85,71,49,30.34,30.20,2,0,13,0.00
2013-10-14,70.8,56.4,47.6,53.5,47.8,-99.9,92,77,48,30.33,30.21,1,0,9,0.00
2013-10-15,73.7,56.3,44.9,57.4,45.7,-99.9,94,73,34,30.24,30.09,1,0,9,0.00
2013-10-16,69.3,60.2,51.0,59.3,54.6,46.3,92,82,67,30.08,29.90,1,0,5,0.00
2013-10-17,74.2,66.2,60.7,63.2,59.3,-99.9,92,82,63,29.90,29.68,3,0,9,0.02
2013-10-18,67.9,58.5,46.1,62.8,45.3,40.5,89,63,42,29.98,29.68,4,1,15,0.00
2013-10-19,65.2,52.5,41.5,53.6,45.1,38.2,92,78,49,29.98,29.75,3,0,11,0.03
2013-10-20,63.1,52.2,41.9,51.6,39.7,32.6,89,65,33,30.06,29.77,4,1,13,0.00
2013-10-21,68.8,51.6,37.2,51.9,37.7,33.4,92,65,29,30.14,29.97,5,1,19,0.00
2013-10-22,70.6,52.8,43.1,55.6,43.1,31.4,93,71,44,29.96,29.76,4,0,13,0.00
2013-10-23,55.9,47.6,41.9,42.4,35.8,31.3,76,64,51,29.81,29.59,2,0,9,0.00
2013-10-24,55.6,44.5,37.8,35.1,30.4,24.6,79,60,35,30.04,29.77,4,1,14,0.00
2013-10-25,53.9,42.9,35.0,34.2,30.3,26.6,79,63,38,30.24,30.04,3,1,12,0.00
2013-10-26,56.5,44.6,29.8,37.5,29.8,25.1,87,59,33,30.24,29.89,8,2,21,0.00
2013-10-27,58.7,49.1,37.5,34.7,31.4,29.4,75,51,35,30.12,29.87,4,1,15,0.00
2013-10-28,63.9,45.7,31.9,41.2,32.4,-99.9,89,65,34,30.28,30.12,3,0,12,0.00
2013-10-29,61.3,47.9,38.0,40.8,35.7,-99.9,85,66,40,30.38,30.28,1,0,6,0.00
2013-10-30,59.9,49.0,40.2,52.2,44.4,36.1,89,84,71,30.33,30.17,2,0,7,0.00
2013-10-31,69.1,59.7,49.6,61.7,54.2,46.8,93,83,68,30.20,29.79,5,1,14,0.02
2013-11-1,69.3,63.8,53.5,62.4,57.4,50.1,90,80,58,29.78,29.56,10,3,25,0.32
2013-11-2,72.0,57.2,48.3,56.3,45.1,-99.9,94,69,35,29.78,29.61,3,0,11,0.00
2013-11-3,53.5,45.6,33.5,41.4,31.2,19.1,80,58,35,30.44,29.78,3,1,12,0.00
2013-11-4,48.2,37.2,29.5,26.0,18.4,-99.9,75,51,27,30.64,30.44,2,0,12,0.00
2013-11-5,60.2,45.9,33.1,40.9,35.0,25.7,82,66,47,30.62,30.46,1,0,7,0.00
2013-11-6,67.6,52.6,40.1,51.2,43.8,36.6,91,74,47,30.47,30.05,4,1,13,0.00
2013-11-7,61.2,53.6,39.1,57.3,48.8,33.0,90,84,75,30.05,29.77,6,1,15,0.03
2013-11-8,49.4,42.3,34.1,37.4,27.8,24.5,83,57,40,30.24,29.95,4,1,16,0.00
2013-11-9,51.9,40.7,28.7,32.0,26.7,23.0,83,60,35,30.30,29.99,4,1,13,0.00
2013-11-10,61.5,45.5,31.9,43.0,29.1,24.2,90,57,33,30.08,29.85,6,1,23,0.00
2013-11-11,57.5,48.0,37.3,35.7,29.0,24.9,64,49,31,30.22,29.96,6,2,19,0.00
2013-11-12,49.8,37.6,27.3,36.5,22.2,-99.9,83,57,42,30.31,29.93,6,1,15,0.01
2013-11-13,39.6,30.7,23.6,18.5,13.4,8.1,71,50,29,30.39,30.30,5,1,14,0.00
2013-11-14,55.0,40.7,26.3,22.4,16.5,8.9,72,42,16,30.30,30.18,4,1,16,0.00
2013-11-15,58.7,41.2,27.9,38.0,26.8,21.2,84,59,30,30.24,30.15,3,0,8,0.00
2013-11-16,61.0,48.7,37.6,47.9,41.7,30.4,90,78,55,30.32,30.23,3,0,9,0.03
2013-11-17,67.4,57.7,49.5,58.5,52.3,46.1,89,83,69,30.24,29.75,4,1,11,0.00
2013-11-18,66.0,59.5,49.4,60.8,39.5,23.5,92,53,25,29.81,29.61,6,2,19,0.15
2013-11-19,49.2,42.6,30.1,25.8,22.1,-99.9,67,46,36,30.33,29.81,6,2,18,0.00
2013-11-20,46.4,34.2,26.4,23.9,15.9,5.1,76,51,21,30.58,30.34,2,0,9,0.00
2013-11-21,54.4,42.4,28.7,38.7,27.3,-99.9,71,58,50,30.57,30.38,3,0,7,0.00
2013-11-22,58.9,51.3,46.5,49.5,45.0,38.5,88,79,68,30.37,29.93,3,0,11,0.00
2013-11-23,52.2,41.9,30.0,48.4,24.3,-99.9,87,53,35,30.05,29.93,5,2,16,0.00
2013-11-24,29.8,25.4,21.6,12.0,-1.2,-99.9,47,33,25,30.42,30.05,7,3,24,0.00
2013-11-25,35.8,27.6,20.0,16.6,10.4,3.0,64,49,35,30.50,30.33,6,1,19,0.00
2013-11-26,52.2,36.1,31.8,50.5,26.6,16.6,94,70,49,30.33,29.66,1,0,12,0.65
2013-11-27,62.0,44.0,31.9,60.8,41.4,20.0,96,91,60,29.81,29.36,7,2,21,1.34
2013-11-28,36.8,30.9,26.9,19.9,15.5,11.9,69,53,37,30.47,29.82,6,2,21,0.00
2013-11-29,40.2,30.6,22.1,25.2,18.1,15.6,83,61,41,30.72,30.45,2,0,9,0.00
2013-11-30,40.2,31.4,22.4,26.6,20.1,11.3,72,63,55,30.72,30.36,1,0,8,0.00
2013-12-1,50.2,39.2,27.0,35.0,28.0,21.9,86,66,41,30.35,30.01,2,0,7,0.00
2013-12-2,50.5,40.6,33.1,32.3,29.7,26.5,81,66,45,30.01,29.86,2,0,7,0.00
2013-12-3,53.8,42.1,32.9,39.4,33.6,27.7,85,73,47,29.99,29.87,1,0,7,0.00
2013-12-4,51.7,43.1,32.4,43.0,36.3,27.5,89,77,62,30.10,29.99,0,0,4,0.00
2013-12-5,58.7,53.2,48.0,56.6,50.4,43.0,94,90,82,30.09,29.92,4,0,12,0.02
2013-12-6,61.3,49.0,36.5,59.9,47.4,34.9,95,94,93,30.13,29.85,3,1,10,0.73
2013-12-7,39.8,34.2,27.3,34.9,29.3,22.5,94,83,63,30.50,30.07,3,1,10,0.11
2013-12-8,30.3,27.4,24.7,28.0,21.5,17.0,91,79,61,30.58,30.32,1,0,5,0.30
2013-12-9,35.9,33.7,30.1,34.6,32.1,27.8,95,94,91,30.32,29.98,124,23,125,0.36
2013-12-10,32.9,30.3,22.2,31.6,28.7,20.0,95,94,91,30.15,29.91,1,0,10,0.28
2013-12-11,31.6,24.1,15.6,25.1,17.9,12.9,92,78,58,30.35,30.16,5,1,14,0.00
2013-12-12,26.6,21.9,17.7,17.7,11.3,6.4,84,65,42,30.37,30.18,3,0,12,0.00
2013-12-13,35.5,27.7,18.0,19.4,12.7,6.7,73,54,43,30.32,30.14,5,1,15,0.00
2013-12-14,31.9,28.8,26.9,29.8,23.5,19.5,92,81,71,30.42,29.68,117,13,125,0.50
2013-12-15,37.6,33.1,28.7,35.5,28.5,20.1,94,84,62,29.86,29.52,121,24,125,0.14
2013-12-16,31.3,26.0,19.2,22.0,11.4,6.4,72,55,40,30.22,29.86,4,1,16,0.00
2013-12-17,31.3,25.8,21.4,27.3,20.4,14.5,87,80,63,30.20,29.92,1,0,6,0.06
2013-12-18,36.6,27.3,18.6,24.9,18.8,14.0,85,71,51,30.18,29.93,5,1,18,0.00
2013-12-19,44.3,32.7,20.2,31.5,23.7,15.2,87,70,55,30.19,30.03,5,0,13,0.00
2013-12-20,51.0,40.5,30.3,36.9,31.2,26.0,87,71,50,30.09,29.96,6,1,15,0.00
2013-12-21,66.0,51.3,37.5,55.6,44.3,32.8,91,78,60,29.99,29.88,6,1,16,0.00
2013-12-22,67.8,63.6,59.8,62.8,58.4,55.0,89,83,77,29.95,29.80,10,4,29,0.12
2013-12-23,61.2,54.8,41.1,59.2,50.9,-99.9,93,89,72,30.16,29.89,5,1,12,0.37
2013-12-24,41.1,34.4,26.7,32.8,21.3,11.8,72,59,47,30.36,30.11,4,1,15,0.00
2013-12-25,29.4,25.0,18.4,15.1,9.5,4.9,64,52,40,30.53,30.37,3,0,12,0.00
2013-12-26,39.2,28.4,19.7,26.6,20.0,13.6,82,71,57,30.40,30.17,4,1,15,0.00
2013-12-27,45.2,31.3,22.2,26.9,18.7,16.0,84,63,31,30.37,30.26,6,1,14,0.00
2013-12-28,56.2,39.0,23.6,32.9,24.4,18.6,85,59,32,30.29,30.08,6,1,16,0.00
2013-12-29,46.0,41.2,37.5,43.8,34.7,-99.9,93,80,62,30.07,29.42,2,0,11,1.03
2013-12-30,44.1,36.2,25.0,40.4,28.5,12.7,93,75,54,30.16,29.72,5,1,14,0.00
2013-12-31,35.8,27.7,20.5,24.8,14.4,9.4,68,57,45,30.30,30.06,6,1,15,0.00
2014-1-1,38.6,29.7,21.1,21.5,16.7,9.5,71,59,46,30.40,30.19,3,0,10,0.00
2014-1-2,32.9,28.2,19.1,24.5,22.0,15.7,87,78,65,30.18,29.62,3,1,12,0.27